.
WxDataArchive / Data Records for 2010-12-12
2010-12-11 December 2010 2010-12-13

Data Records for Sunday, 12 December 2010

Time	Temp	Chill	HIndex	Humid	Dewpt	 Wind 	HiWind	WindDir	Rain 	Barom 
-----	----	-----	------	-----	-----	------	------	-------	-----	----- 
00:00	38.5	38.5	38.5	93	36.7	2	6	90	0.01	29.523 
00:05	38.6	38.6	38.6	93	36.8	2	5	112	0.00	29.523 
00:10	38.6	38.6	38.6	93	36.8	1	3	90	0.00	29.523 
00:15	38.6	38.6	38.6	93	36.8	1	5	90	0.00	29.505 
00:20	38.6	38.6	38.6	93	36.8	2	7	90	0.00	29.505 
00:25	38.6	38.6	38.6	93	36.8	2	4	90	0.00	29.505 
00:30	38.6	38.6	38.6	93	36.8	1	4	68	0.00	29.497 
00:35	38.6	38.6	38.6	94	37.0	1	4	90	0.00	29.497 
00:40	38.6	38.6	38.6	94	37.0	1	3	90	0.00	29.497 
00:45	38.6	38.6	38.6	94	37.0	1	4	90	0.00	29.495 
00:50	38.6	38.6	38.6	94	37.0	2	4	90	0.00	29.495 
00:55	38.6	38.6	38.6	94	37.0	2	6	90	0.00	29.495 
01:00	38.8	38.8	38.8	94	37.2	2	6	90	0.00	29.489 
01:05	38.8	38.8	38.8	94	37.2	2	4	112	0.00	29.489 
01:10	38.8	38.8	38.8	94	37.2	1	4	90	0.00	29.489 
01:15	38.8	38.8	38.8	94	37.2	1	6	90	0.00	29.490 
01:20	38.8	38.8	38.8	94	37.2	1	5	112	0.00	29.490 
01:25	38.9	38.9	38.9	94	37.3	2	7	90	0.00	29.490 
01:30	38.9	38.9	38.9	94	37.3	1	4	90	0.00	29.489 
01:35	38.9	38.9	38.9	94	37.3	1	4	90	0.01	29.489 
01:40	38.9	38.9	38.9	94	37.3	2	6	135	0.00	29.489 
01:45	39.1	39.1	39.1	94	37.5	1	4	135	0.00	29.478 
01:50	39.1	39.1	39.1	94	37.5	1	2	112	0.00	29.478 
01:55	39.1	39.1	39.1	94	37.5	2	6	90	0.01	29.478 
02:00	39.1	39.1	39.1	94	37.5	1	3	112	0.00	29.471 
02:05	39.1	39.1	39.1	94	37.5	1	3	112	0.00	29.471 
02:10	39.1	39.1	39.1	94	37.5	1	4	158	0.00	29.471 
02:15	39.2	39.2	39.2	95	37.9	1	3	68	0.00	29.465 
02:20	39.2	39.2	39.2	95	37.9	0	2	112	0.00	29.465 
02:25	39.2	39.2	39.2	95	37.9	1	2	112	0.00	29.465 
02:30	39.2	39.2	39.2	95	37.9	1	3	112	0.00	29.467 
02:35	39.2	39.2	39.2	95	37.9	0	2	112	0.00	29.467 
02:40	39.2	39.2	39.2	95	37.9	1	3	112	0.00	29.467 
02:45	39.2	39.2	39.2	95	37.9	0	2	112	0.00	29.457 
02:50	39.2	39.2	39.2	95	37.9	1	3	112	0.00	29.457 
02:55	39.2	39.2	39.2	95	37.9	1	4	112	0.00	29.457 
03:00	39.2	39.2	39.2	95	37.9	1	3	90	0.00	29.456 
03:05	39.2	39.2	39.2	95	37.9	1	3	135	0.00	29.456 
03:10	39.2	39.2	39.2	95	37.9	0	2	135	0.00	29.456 
03:15	39.2	39.2	39.2	95	37.9	0	2	135	0.00	29.458 
03:20	39.2	39.2	39.2	95	37.9	0	3	135	0.00	29.458 
03:25	39.2	39.2	39.2	95	37.9	0	3	135	0.00	29.458 
03:30	39.2	39.2	39.2	95	37.9	0	1	135	0.00	29.454 
03:35	39.3	39.3	39.3	95	38.0	0	2	135	0.01	29.454 
03:40	37.9	37.9	37.9	94	36.3	2	4	270	0.00	29.454 
03:45	35.9	35.9	35.9	93	34.1	2	5	270	0.00	29.461 
03:50	34.7	34.7	34.7	94	33.2	2	4	248	0.00	29.461 
03:55	34.3	34.3	34.3	94	32.8	1	3	248	0.00	29.461 
04:00	34.0	34.0	34.0	94	32.5	2	5	248	0.00	29.466 
04:05	33.7	33.7	33.7	94	32.2	2	6	225	0.00	29.466 
04:10	33.4	33.4	33.4	94	31.9	3	6	248	0.00	29.466 
04:15	33.1	33.1	33.1	94	31.6	2	4	248	0.00	29.464 
04:20	32.8	32.8	32.8	94	31.3	2	3	248	0.00	29.464 
04:25	32.5	32.5	32.5	94	31.0	2	6	248	0.00	29.464 
04:30	32.4	32.4	32.4	94	30.9	2	3	248	0.00	29.464 
04:35	32.2	32.2	32.2	94	30.7	1	2	248	0.00	29.464 
04:40	32.2	32.2	32.2	94	30.7	1	3	248	0.00	29.464 
04:45	32.1	32.1	32.1	94	30.6	1	3	248	0.00	29.462 
04:50	32.1	32.1	32.1	94	30.6	1	4	292	0.00	29.462 
04:55	31.6	31.6	31.6	94	30.1	2	3	292	0.00	29.462 
05:00	31.5	31.5	31.5	94	30.0	1	4	292	0.00	29.464 
05:05	31.3	31.3	31.3	94	29.8	1	4	292	0.00	29.464 
05:10	31.0	31.0	31.0	94	29.5	2	3	270	0.00	29.464 
05:15	30.7	30.7	30.7	94	29.2	2	5	270	0.00	29.462 
05:20	30.7	30.7	30.7	94	29.2	1	3	248	0.00	29.462 
05:25	30.7	30.7	30.7	94	29.2	2	4	248	0.00	29.462 
05:30	30.6	30.6	30.6	94	29.1	1	2	270	0.00	29.467 
05:35	30.4	30.4	30.4	94	28.9	1	3	248	0.00	29.467 
05:40	30.3	30.3	30.3	94	28.8	2	5	292	0.00	29.467 
05:45	30.1	30.1	30.1	94	28.6	2	4	270	0.00	29.459 
05:50	30.1	30.1	30.1	94	28.6	1	3	270	0.00	29.459 
05:55	30.0	30.0	30.0	94	28.5	2	4	270	0.00	29.459 
06:00	29.7	29.7	29.7	94	28.2	1	4	270	0.00	29.467 
06:05	29.7	29.7	29.7	94	28.2	1	3	248	0.00	29.467 
06:10	29.5	29.5	29.5	94	28.0	1	3	248	0.00	29.467 
06:15	29.5	29.5	29.5	94	28.0	1	2	248	0.00	29.467 
06:20	29.4	29.4	29.4	94	27.9	1	3	248	0.00	29.467 
06:25	29.3	29.3	29.3	94	27.8	0	2	248	0.00	29.467 
06:30	29.0	29.0	29.0	94	27.5	1	3	248	0.00	29.471 
06:35	28.7	28.7	28.7	94	27.2	2	4	248	0.00	29.471 
06:40	28.4	28.4	28.4	94	26.9	2	4	248	0.00	29.471 
06:45	28.1	28.1	28.1	94	26.6	2	4	270	0.00	29.469 
06:50	27.8	27.8	27.8	94	26.3	2	4	248	0.00	29.469 
06:55	27.6	27.6	27.6	94	26.1	1	3	248	0.00	29.469 
07:00	27.6	27.6	27.6	94	26.1	1	3	248	0.00	29.469 
07:05	27.6	27.6	27.6	94	26.1	2	5	270	0.00	29.469 
07:10	27.5	27.5	27.5	94	26.0	1	3	270	0.00	29.469 
07:15	27.3	27.3	27.3	94	25.8	1	3	270	0.00	29.470 
07:20	27.3	27.3	27.3	94	25.8	1	3	270	0.00	29.470 
07:25	27.3	27.3	27.3	94	25.8	1	3	270	0.00	29.470 
07:30	27.3	27.3	27.3	94	25.8	2	3	270	0.00	29.471 
07:35	27.3	27.3	27.3	94	25.8	1	3	248	0.00	29.471 
07:40	27.3	27.3	27.3	94	25.8	0	2	248	0.00	29.471 
07:45	27.3	27.3	27.3	94	25.8	1	3	248	0.00	29.467 
07:50	27.2	27.2	27.2	94	25.7	2	3	248	0.00	29.467 
07:55	27.0	27.0	27.0	94	25.5	1	3	248	0.00	29.467 
08:00	26.9	26.9	26.9	94	25.4	1	2	248	0.00	29.466 
08:05	26.9	26.9	26.9	94	25.4	1	2	248	0.00	29.466 
08:10	26.7	26.7	26.7	94	25.2	1	3	315	0.00	29.466 
08:15	26.7	26.7	26.7	94	25.2	1	2	270	0.00	29.468 
08:20	26.7	26.7	26.7	94	25.2	0	2	270	0.00	29.468 
08:25	26.7	26.7	26.7	94	25.2	1	3	270	0.00	29.468 
08:30	26.7	26.7	26.7	93	25.0	1	3	270	0.00	29.462 
08:35	26.7	26.7	26.7	93	25.0	1	3	248	0.00	29.462 
08:40	26.7	26.7	26.7	93	25.0	1	3	248	0.00	29.462 
08:45	26.6	26.6	26.6	93	24.9	0	2	248	0.00	29.460 
08:50	26.6	26.6	26.6	93	24.9	1	3	248	0.00	29.460 
08:55	26.6	26.6	26.6	93	24.9	1	3	248	0.00	29.460 
09:00	26.6	26.6	26.6	93	24.9	1	3	248	0.00	29.445 
09:05	26.4	26.4	26.4	93	24.7	1	3	270	0.00	29.445 
09:10	26.4	26.4	26.4	93	24.7	2	4	248	0.00	29.445 
09:15	26.3	26.3	26.3	93	24.6	1	3	270	0.00	29.464 
09:20	26.1	26.1	26.1	93	24.4	1	4	248	0.00	29.464 
09:25	26.0	26.0	26.0	93	24.3	2	7	248	0.00	29.464 
09:30	26.0	26.0	26.0	93	24.3	2	4	270	0.00	29.457 
09:35	25.7	25.7	25.7	93	24.0	2	4	270	0.00	29.457 
09:40	25.6	25.6	25.6	93	23.9	2	4	270	0.00	29.457 
09:45	25.6	25.6	25.6	93	23.9	2	3	270	0.00	29.457 
09:50	25.4	25.4	25.4	92	23.4	2	4	270	0.00	29.457 
09:55	25.4	25.4	25.4	92	23.4	2	4	248	0.00	29.457 
10:00	25.4	25.4	25.4	92	23.4	2	5	270	0.00	29.461 
10:05	25.3	25.3	25.3	92	23.3	2	4	270	0.00	29.461 
10:10	25.3	25.3	25.3	92	23.3	2	4	270	0.00	29.461 
10:15	25.3	25.3	25.3	92	23.3	2	5	248	0.00	29.457 
10:20	25.1	25.1	25.1	92	23.1	2	10	248	0.00	29.457 
10:25	25.0	25.0	25.0	92	23.0	3	7	248	0.00	29.457 
10:30	24.8	24.8	24.8	92	22.8	2	4	248	0.00	29.455 
10:35	24.7	24.7	24.7	92	22.7	2	4	270	0.00	29.455 
10:40	24.5	24.5	24.5	92	22.5	3	6	270	0.00	29.455 
10:45	24.4	24.4	24.4	92	22.4	3	7	270	0.00	29.453 
10:50	24.4	24.4	24.4	92	22.4	2	4	248	0.00	29.453 
10:55	24.2	24.2	24.2	92	22.2	2	4	248	0.00	29.453 
11:00	24.2	24.2	24.2	92	22.2	1	3	248	0.00	29.455 
11:05	24.2	24.2	24.2	92	22.2	2	6	270	0.00	29.455 
11:10	24.2	24.2	24.2	92	22.2	2	5	270	0.00	29.455 
11:15	24.1	24.1	24.1	91	21.9	2	5	270	0.00	29.456 
11:20	23.9	23.9	23.9	91	21.7	2	4	248	0.00	29.456 
11:25	23.9	23.9	23.9	91	21.7	2	5	270	0.00	29.456 
11:30	23.9	23.9	23.9	91	21.7	3	6	270	0.00	29.456 
11:35	23.6	23.6	23.6	91	21.4	3	6	270	0.00	29.456 
11:40	23.5	23.5	23.5	91	21.3	3	7	248	0.00	29.456 
11:45	23.5	23.5	23.5	91	21.3	2	4	270	0.00	29.455 
11:50	23.5	23.5	23.5	91	21.3	2	5	248	0.00	29.455 
11:55	23.5	23.5	23.5	91	21.3	2	5	248	0.00	29.455 
12:00	23.5	23.5	23.5	91	21.3	3	6	248	0.00	29.441 
12:05	23.2	23.2	23.2	91	21.0	3	6	270	0.00	29.441 
12:10	23.0	23.0	23.0	91	20.8	2	4	270	0.00	29.441 
12:15	23.0	23.0	23.0	90	20.5	2	6	270	0.00	29.436 
12:20	22.9	22.9	22.9	90	20.4	3	6	248	0.00	29.436 
12:25	23.0	23.0	23.0	90	20.5	3	5	248	0.00	29.436 
12:30	23.0	23.0	23.0	90	20.5	2	6	270	0.00	29.428 
12:35	23.0	23.0	23.0	90	20.5	3	5	292	0.00	29.428 
12:40	23.0	23.0	23.0	90	20.5	3	7	270	0.00	29.428 
12:45	23.0	23.0	23.0	90	20.5	3	9	270	0.00	29.431 
12:50	23.0	23.0	23.0	90	20.5	2	4	270	0.00	29.431 
12:55	23.2	23.2	23.2	90	20.7	2	6	248	0.00	29.431 
13:00	23.2	23.2	23.2	90	20.7	2	4	270	0.00	29.438 
13:05	23.3	23.3	23.3	90	20.8	2	5	270	0.00	29.438 
13:10	23.3	23.3	23.3	90	20.8	2	5	248	0.00	29.438 
13:15	23.3	23.3	23.3	90	20.8	3	6	270	0.00	29.438 
13:20	23.2	23.2	23.2	89	20.4	3	6	270	0.00	29.438 
13:25	23.2	23.2	23.2	90	20.7	2	7	248	0.00	29.438 
13:30	23.2	23.2	23.2	89	20.4	3	7	248	0.00	29.439 
13:35	23.2	23.2	23.2	89	20.4	2	5	248	0.00	29.439 
13:40	23.2	23.2	23.2	89	20.4	2	6	248	0.00	29.439 
13:45	23.0	23.0	23.0	89	20.3	2	6	248	0.00	29.433 
13:50	23.0	23.0	23.0	89	20.3	3	9	248	0.00	29.433 
13:55	22.9	22.9	22.9	89	20.2	2	7	270	0.00	29.433 
14:00	22.9	22.9	22.9	89	20.2	2	6	248	0.00	29.431 
14:05	22.9	22.9	22.9	89	20.2	3	10	248	0.00	29.431 
14:10	22.9	22.9	22.9	89	20.2	3	7	270	0.00	29.431 
14:15	22.9	22.9	22.9	89	20.2	3	6	270	0.00	29.427 
14:20	22.7	22.7	22.7	89	20.0	3	9	270	0.00	29.427 
14:25	22.7	22.7	22.7	89	20.0	3	6	248	0.00	29.427 
14:30	22.7	22.7	22.7	89	20.0	3	7	248	0.00	29.427 
14:35	22.7	22.7	22.7	89	20.0	3	6	248	0.00	29.427 
14:40	22.9	22.9	22.9	89	20.2	2	5	248	0.00	29.427 
14:45	22.9	22.9	22.9	89	20.2	2	6	248	0.00	29.426 
14:50	22.9	22.9	22.9	89	20.2	3	7	248	0.00	29.426 
14:55	22.9	22.9	22.9	89	20.2	3	5	270	0.00	29.426 
15:00	22.9	22.9	22.9	89	20.2	2	5	248	0.00	29.426 
15:05	23.0	23.0	23.0	89	20.3	2	7	248	0.00	29.426 
15:10	23.2	23.2	23.2	89	20.4	2	6	248	0.00	29.426 
15:15	23.3	23.3	23.3	89	20.5	2	4	270	0.00	29.429 
15:20	23.5	23.5	23.5	89	20.7	3	5	270	0.00	29.429 
15:25	23.6	23.6	23.6	89	20.8	1	4	270	0.00	29.429 
15:30	23.8	23.8	23.8	89	21.0	2	5	270	0.00	29.431 
15:35	23.8	23.8	23.8	89	21.0	2	4	248	0.00	29.431 
15:40	23.9	23.9	23.9	89	21.1	2	4	248	0.00	29.431 
15:45	23.9	23.9	23.9	90	21.4	2	3	248	0.00	29.440 
15:50	23.8	23.8	23.8	90	21.3	2	6	248	0.00	29.440 
15:55	23.8	23.8	23.8	90	21.3	2	5	248	0.00	29.440 
16:00	23.6	23.6	23.6	90	21.1	1	3	248	0.00	29.445 
16:05	23.6	23.6	23.6	90	21.1	1	3	248	0.00	29.445 
16:10	23.8	23.8	23.8	90	21.3	1	3	248	0.00	29.445 
16:15	23.8	23.8	23.8	90	21.3	2	5	248	0.00	29.455 
16:20	23.8	23.8	23.8	90	21.3	1	3	248	0.00	29.455 
16:25	23.9	23.9	23.9	91	21.7	1	2	248	0.00	29.455 
16:30	23.9	23.9	23.9	91	21.7	1	3	248	0.00	29.462 
16:35	24.1	24.1	24.1	91	21.9	1	3	248	0.00	29.462 
16:40	24.2	24.2	24.2	91	22.0	1	2	248	0.00	29.462 
16:45	24.2	24.2	24.2	91	22.0	0	2	248	0.00	29.470 
16:50	24.4	24.4	24.4	91	22.2	1	3	248	0.00	29.470 
16:55	24.7	24.7	24.7	91	22.5	1	3	248	0.00	29.470 
17:00	25.0	25.0	25.0	92	23.0	1	4	315	0.00	29.479 
17:05	25.4	25.4	25.4	92	23.4	1	4	338	0.00	29.479 
17:10	25.8	25.8	25.8	92	23.8	1	5	292	0.00	29.479 
17:15	26.0	26.0	26.0	92	24.0	1	3	270	0.00	29.490 
17:20	26.1	26.1	26.1	92	24.1	1	3	45	0.00	29.490 
17:25	26.3	26.3	26.3	92	24.3	1	3	338	0.00	29.490 
17:30	26.3	26.3	26.3	92	24.3	1	5	0	0.00	29.498 
17:35	26.1	26.1	26.1	92	24.1	1	4	0	0.00	29.498 
17:40	26.0	26.0	26.0	92	24.0	2	4	315	0.00	29.498 
17:45	25.4	25.4	25.4	91	23.1	2	12	22	0.00	29.512 
17:50	25.0	25.0	25.0	91	22.8	1	3	0	0.00	29.512 
17:55	24.8	24.8	24.8	91	22.6	2	7	0	0.00	29.512 
18:00	24.4	24.4	24.4	90	21.9	2	4	315	0.00	29.525 
18:05	24.2	24.2	24.2	90	21.7	2	5	338	0.00	29.525 
18:10	24.2	24.2	24.2	90	21.7	1	3	0	0.00	29.525 
18:15	24.1	24.1	24.1	90	21.6	1	5	338	0.00	29.540 
18:20	23.8	23.8	23.8	89	21.0	2	6	338	0.00	29.540 
18:25	23.6	23.6	23.6	89	20.8	1	4	338	0.00	29.540 
18:30	23.3	23.3	23.3	88	20.3	1	5	22	0.00	29.547 
18:35	23.3	23.3	23.3	88	20.3	1	3	292	0.00	29.547 
18:40	23.2	23.2	23.2	88	20.2	1	4	22	0.00	29.547 
18:45	23.2	23.2	23.2	88	20.2	1	5	315	0.00	29.554 
18:50	23.2	23.2	23.2	88	20.2	1	4	338	0.00	29.554 
18:55	23.0	23.0	23.0	88	20.0	1	3	22	0.00	29.554 
19:00	22.9	22.9	22.9	87	19.6	1	3	45	0.00	29.563 
19:05	22.7	22.7	22.7	87	19.4	1	3	270	0.00	29.563 
19:10	22.7	22.7	22.7	86	19.2	1	3	22	0.00	29.563 
19:15	22.2	22.2	22.2	86	18.7	2	6	338	0.00	29.582 
19:20	21.8	21.8	21.8	84	17.7	2	5	0	0.00	29.582 
19:25	21.4	21.4	21.4	84	17.3	1	4	270	0.00	29.582 
19:30	21.3	21.3	21.3	84	17.2	1	3	270	0.00	29.596 
19:35	21.1	21.1	21.1	84	17.0	2	6	270	0.00	29.596 
19:40	21.0	21.0	21.0	84	16.9	2	5	338	0.00	29.596 
19:45	20.5	20.5	20.5	83	16.2	3	10	338	0.00	29.609 
19:50	20.0	20.0	20.0	82	15.4	2	5	338	0.00	29.609 
19:55	19.9	19.9	19.9	82	15.3	1	5	315	0.00	29.609 
20:00	19.5	19.5	19.5	81	14.6	2	9	315	0.00	29.622 
20:05	19.4	19.4	19.4	81	14.5	2	10	338	0.00	29.622 
20:10	19.4	19.4	19.4	81	14.5	2	5	22	0.00	29.622 
20:15	19.4	19.4	19.4	81	14.5	2	6	315	0.00	29.627 
20:20	19.4	19.4	19.4	81	14.5	2	6	338	0.00	29.627 
20:25	19.2	19.2	19.2	81	14.3	2	9	338	0.00	29.627 
20:30	19.1	19.1	19.1	83	14.8	3	7	315	0.00	29.631 
20:35	18.9	18.9	18.9	81	14.1	1	6	315	0.00	29.631 
20:40	18.9	18.9	18.9	82	14.3	1	5	248	0.00	29.631 
20:45	18.8	18.8	18.8	82	14.2	1	4	22	0.00	29.636 
20:50	18.8	18.8	18.8	82	14.2	2	11	338	0.00	29.636 
20:55	18.8	18.8	18.8	83	14.5	1	3	270	0.00	29.636 
21:00	18.6	18.6	18.6	83	14.3	1	4	0	0.00	29.645 
21:05	18.6	18.6	18.6	83	14.3	2	5	315	0.00	29.645 
21:10	18.6	18.6	18.6	82	14.0	1	4	315	0.00	29.645 
21:15	18.6	18.6	18.6	81	13.8	1	5	270	0.00	29.648 
21:20	18.8	18.8	18.8	81	14.0	1	4	338	0.00	29.648 
21:25	18.8	18.8	18.8	81	14.0	2	7	338	0.00	29.648 
21:30	18.8	18.8	18.8	79	13.4	2	5	338	0.00	29.652 
21:35	18.8	18.8	18.8	79	13.4	2	6	338	0.00	29.652 
21:40	18.8	18.8	18.8	78	13.1	1	6	315	0.00	29.652 
21:45	18.8	18.8	18.8	78	13.1	2	7	315	0.00	29.657 
21:50	18.8	18.8	18.8	77	12.8	2	5	270	0.00	29.657 
21:55	18.8	18.8	18.8	77	12.8	2	5	338	0.00	29.657 
22:00	18.8	18.8	18.8	76	12.5	1	5	0	0.00	29.660 
22:05	18.8	18.8	18.8	76	12.5	2	7	248	0.00	29.660 
22:10	18.6	18.6	18.6	76	12.3	2	9	315	0.00	29.660 
22:15	18.6	18.6	18.6	76	12.3	2	5	338	0.00	29.664 
22:20	18.6	18.6	18.6	76	12.3	2	5	0	0.00	29.664 
22:25	18.6	18.6	18.6	76	12.3	1	3	292	0.00	29.664 
22:30	18.6	18.6	18.6	77	12.6	1	5	0	0.00	29.666 
22:35	18.6	18.6	18.6	77	12.6	2	5	292	0.00	29.666 
22:40	18.8	18.8	18.8	77	12.8	1	8	270	0.00	29.666 
22:45	18.8	18.8	18.8	77	12.8	2	12	292	0.00	29.667 
22:50	18.8	18.8	18.8	77	12.8	1	5	0	0.00	29.667 
22:55	18.9	18.9	18.9	76	12.6	2	5	338	0.00	29.667 
23:00	19.1	19.1	19.1	76	12.8	2	5	338	0.00	29.670 
23:05	19.1	19.1	19.1	76	12.8	1	4	338	0.00	29.670 
23:10	19.1	19.1	19.1	77	13.1	2	7	315	0.00	29.670 
23:15	19.1	19.1	19.1	77	13.1	1	6	315	0.00	29.673 
23:20	19.1	19.1	19.1	78	13.4	1	3	0	0.00	29.673 
23:25	19.1	19.1	19.1	79	13.7	1	3	270	0.00	29.673 
23:30	18.9	18.9	18.9	80	13.8	1	4	270	0.00	29.681 
23:35	18.9	18.9	18.9	81	14.1	1	3	0	0.00	29.681 
23:40	18.9	18.9	18.9	81	14.1	0	2	315	0.00	29.681 
23:45	18.8	18.8	18.8	81	14.0	1	7	45	0.00	29.683 
23:50	18.8	18.8	18.8	80	13.7	1	4	338	0.00	29.683 
23:55	18.8	18.8	18.8	78	13.1	1	5	0	0.00	29.683 

CoCoRaHS
IN-AL-39
A2 Web Hosting
Creative Commons License
GoDaddy
search engine by freefind advanced

loaded 2018-11-20 14:18:24 • last modified 2010-11-18 10:43:29
Privacy PolicyDisclaimer
• wx.awcolley.com is powered by PmWiki v.2002016 •
• all content (unless otherwise noted) © 2018 A W Colley